sensor_id;sensor_type;location;lat;lon;timestamp;temperature;humidity
26336;DHT22;14047;50.936;4.654;2023-09-07T00:00:30;19.20;99.90
26336;DHT22;14047;50.936;4.654;2023-09-07T00:02:56;19.20;99.90
26336;DHT22;14047;50.936;4.654;2023-09-07T00:05:22;19.20;99.90
26336;DHT22;14047;50.936;4.654;2023-09-07T00:07:48;19.10;99.90
26336;DHT22;14047;50.936;4.654;2023-09-07T00:10:14;19.10;99.90
26336;DHT22;14047;50.936;4.654;2023-09-07T00:12:40;19.10;99.90
26336;DHT22;14047;50.936;4.654;2023-09-07T00:15:06;19.00;99.90
26336;DHT22;14047;50.936;4.654;2023-09-07T00:17:33;19.00;99.90
26336;DHT22;14047;50.936;4.654;2023-09-07T00:19:59;19.00;99.90
26336;DHT22;14047;50.936;4.654;2023-09-07T00:22:24;18.90;99.90
26336;DHT22;14047;50.936;4.654;2023-09-07T00:24:51;18.90;99.90
26336;DHT22;14047;50.936;4.654;2023-09-07T00:27:17;18.90;99.90
26336;DHT22;14047;50.936;4.654;2023-09-07T00:29:44;18.80;99.90
26336;DHT22;14047;50.936;4.654;2023-09-07T00:32:09;18.80;99.90
26336;DHT22;14047;50.936;4.654;2023-09-07T00:34:36;18.70;99.90
26336;DHT22;14047;50.936;4.654;2023-09-07T00:37:01;18.70;99.90
26336;DHT22;14047;50.936;4.654;2023-09-07T00:39:27;18.60;99.90
26336;DHT22;14047;50.936;4.654;2023-09-07T00:41:53;18.60;99.90
26336;DHT22;14047;50.936;4.654;2023-09-07T00:44:20;18.50;99.90
26336;DHT22;14047;50.936;4.654;2023-09-07T00:46:46;18.50;99.90
26336;DHT22;14047;50.936;4.654;2023-09-07T00:49:13;18.50;99.90
26336;DHT22;14047;50.936;4.654;2023-09-07T00:51:39;18.50;99.90
26336;DHT22;14047;50.936;4.654;2023-09-07T00:54:06;18.50;99.90
26336;DHT22;14047;50.936;4.654;2023-09-07T00:56:32;18.50;99.90
26336;DHT22;14047;50.936;4.654;2023-09-07T00:58:58;18.40;99.90
26336;DHT22;14047;50.936;4.654;2023-09-07T01:01:26;18.30;99.90
26336;DHT22;14047;50.936;4.654;2023-09-07T01:03:52;18.30;99.90
26336;DHT22;14047;50.936;4.654;2023-09-07T01:06:29;18.20;99.90
26336;DHT22;14047;50.936;4.654;2023-09-07T01:08:58;18.10;99.90
26336;DHT22;14047;50.936;4.654;2023-09-07T01:11:26;18.10;99.90
26336;DHT22;14047;50.936;4.654;2023-09-07T01:13:53;18.10;99.90
26336;DHT22;14047;50.936;4.654;2023-09-07T01:16:22;18.10;99.90
26336;DHT22;14047;50.936;4.654;2023-09-07T01:18:49;18.00;99.90
26336;DHT22;14047;50.936;4.654;2023-09-07T01:21:16;18.00;99.90
26336;DHT22;14047;50.936;4.654;2023-09-07T01:23:44;18.00;99.90
26336;DHT22;14047;50.936;4.654;2023-09-07T01:26:12;18.00;99.90
26336;DHT22;14047;50.936;4.654;2023-09-07T01:28:38;17.90;99.90
26336;DHT22;14047;50.936;4.654;2023-09-07T01:31:04;17.90;99.90
26336;DHT22;14047;50.936;4.654;2023-09-07T01:33:31;17.90;99.90
26336;DHT22;14047;50.936;4.654;2023-09-07T01:35:57;17.90;99.90
26336;DHT22;14047;50.936;4.654;2023-09-07T01:38:23;17.90;99.90
26336;DHT22;14047;50.936;4.654;2023-09-07T01:40:49;17.80;99.90
26336;DHT22;14047;50.936;4.654;2023-09-07T01:43:15;17.80;99.90
26336;DHT22;14047;50.936;4.654;2023-09-07T01:45:41;17.80;99.90
26336;DHT22;14047;50.936;4.654;2023-09-07T01:48:11;17.80;99.90
26336;DHT22;14047;50.936;4.654;2023-09-07T01:50:38;17.80;99.90
26336;DHT22;14047;50.936;4.654;2023-09-07T01:53:04;17.70;99.90
26336;DHT22;14047;50.936;4.654;2023-09-07T01:55:31;17.70;99.90
26336;DHT22;14047;50.936;4.654;2023-09-07T01:57:58;17.70;99.90
26336;DHT22;14047;50.936;4.654;2023-09-07T02:00:25;17.70;99.90
26336;DHT22;14047;50.936;4.654;2023-09-07T02:02:51;17.70;99.90
26336;DHT22;14047;50.936;4.654;2023-09-07T02:05:17;17.60;99.90
26336;DHT22;14047;50.936;4.654;2023-09-07T02:07:43;17.60;99.90
26336;DHT22;14047;50.936;4.654;2023-09-07T02:10:10;17.60;99.90
26336;DHT22;14047;50.936;4.654;2023-09-07T02:12:36;17.60;99.90
26336;DHT22;14047;50.936;4.654;2023-09-07T02:15:04;17.60;99.90
26336;DHT22;14047;50.936;4.654;2023-09-07T02:17:31;17.60;99.90
26336;DHT22;14047;50.936;4.654;2023-09-07T02:19:58;17.60;99.90
26336;DHT22;14047;50.936;4.654;2023-09-07T02:22:25;17.50;99.90
26336;DHT22;14047;50.936;4.654;2023-09-07T02:24:51;17.50;99.90
26336;DHT22;14047;50.936;4.654;2023-09-07T02:27:17;17.50;99.90
26336;DHT22;14047;50.936;4.654;2023-09-07T02:29:43;17.50;99.90
26336;DHT22;14047;50.936;4.654;2023-09-07T02:32:09;17.40;99.90
26336;DHT22;14047;50.936;4.654;2023-09-07T02:34:35;17.40;99.90
26336;DHT22;14047;50.936;4.654;2023-09-07T02:37:05;17.40;99.90
26336;DHT22;14047;50.936;4.654;2023-09-07T02:39:31;17.30;99.90
26336;DHT22;14047;50.936;4.654;2023-09-07T02:41:57;17.30;99.90
26336;DHT22;14047;50.936;4.654;2023-09-07T02:44:23;17.30;99.90
26336;DHT22;14047;50.936;4.654;2023-09-07T02:46:49;17.30;99.90
26336;DHT22;14047;50.936;4.654;2023-09-07T02:49:15;17.30;99.90
26336;DHT22;14047;50.936;4.654;2023-09-07T02:51:41;17.20;99.90
26336;DHT22;14047;50.936;4.654;2023-09-07T02:54:07;17.20;99.90
26336;DHT22;14047;50.936;4.654;2023-09-07T02:56:33;17.20;99.90
26336;DHT22;14047;50.936;4.654;2023-09-07T02:58:59;17.10;99.90
26336;DHT22;14047;50.936;4.654;2023-09-07T03:01:25;17.10;99.90
26336;DHT22;14047;50.936;4.654;2023-09-07T03:03:51;17.10;99.90
26336;DHT22;14047;50.936;4.654;2023-09-07T03:06:17;17.10;99.90
26336;DHT22;14047;50.936;4.654;2023-09-07T03:08:47;17.00;99.90
26336;DHT22;14047;50.936;4.654;2023-09-07T03:11:13;17.00;99.90
26336;DHT22;14047;50.936;4.654;2023-09-07T03:13:39;17.00;99.90
26336;DHT22;14047;50.936;4.654;2023-09-07T03:16:05;17.00;99.90
26336;DHT22;14047;50.936;4.654;2023-09-07T03:18:32;16.90;99.90
26336;DHT22;14047;50.936;4.654;2023-09-07T03:20:59;16.90;99.90
26336;DHT22;14047;50.936;4.654;2023-09-07T03:23:27;16.90;99.90
26336;DHT22;14047;50.936;4.654;2023-09-07T03:25:53;16.90;99.90
26336;DHT22;14047;50.936;4.654;2023-09-07T03:28:19;16.80;99.90
26336;DHT22;14047;50.936;4.654;2023-09-07T03:30:46;16.80;99.90
26336;DHT22;14047;50.936;4.654;2023-09-07T03:33:12;16.70;99.90
26336;DHT22;14047;50.936;4.654;2023-09-07T03:35:38;16.70;99.90
26336;DHT22;14047;50.936;4.654;2023-09-07T03:38:04;16.70;99.90
26336;DHT22;14047;50.936;4.654;2023-09-07T03:40:30;16.70;99.90
26336;DHT22;14047;50.936;4.654;2023-09-07T03:42:56;16.70;99.90
26336;DHT22;14047;50.936;4.654;2023-09-07T03:45:22;16.60;99.90
26336;DHT22;14047;50.936;4.654;2023-09-07T03:47:48;16.50;99.90
26336;DHT22;14047;50.936;4.654;2023-09-07T03:50:16;16.50;99.90
26336;DHT22;14047;50.936;4.654;2023-09-07T03:52:42;16.50;99.90
26336;DHT22;14047;50.936;4.654;2023-09-07T03:55:08;16.50;99.90
26336;DHT22;14047;50.936;4.654;2023-09-07T03:57:35;16.40;99.90
26336;DHT22;14047;50.936;4.654;2023-09-07T04:00:02;16.40;99.90
26336;DHT22;14047;50.936;4.654;2023-09-07T04:02:39;16.40;99.90
26336;DHT22;14047;50.936;4.654;2023-09-07T04:05:06;16.30;99.90
26336;DHT22;14047;50.936;4.654;2023-09-07T04:07:32;16.40;99.90
26336;DHT22;14047;50.936;4.654;2023-09-07T04:09:58;16.30;99.90
26336;DHT22;14047;50.936;4.654;2023-09-07T04:12:24;16.30;99.90
26336;DHT22;14047;50.936;4.654;2023-09-07T04:14:50;16.30;99.90
26336;DHT22;14047;50.936;4.654;2023-09-07T04:17:16;16.30;99.90
26336;DHT22;14047;50.936;4.654;2023-09-07T04:19:42;16.40;99.90
26336;DHT22;14047;50.936;4.654;2023-09-07T04:22:11;16.30;99.90
26336;DHT22;14047;50.936;4.654;2023-09-07T04:24:37;16.30;99.90
26336;DHT22;14047;50.936;4.654;2023-09-07T04:27:07;16.30;99.90
26336;DHT22;14047;50.936;4.654;2023-09-07T04:29:36;16.30;99.90
26336;DHT22;14047;50.936;4.654;2023-09-07T04:32:02;16.20;99.90
26336;DHT22;14047;50.936;4.654;2023-09-07T04:34:29;16.10;99.90
26336;DHT22;14047;50.936;4.654;2023-09-07T04:36:57;16.10;99.90
26336;DHT22;14047;50.936;4.654;2023-09-07T04:39:24;16.10;99.90
26336;DHT22;14047;50.936;4.654;2023-09-07T04:41:51;16.00;99.90
26336;DHT22;14047;50.936;4.654;2023-09-07T04:44:18;16.00;99.90
26336;DHT22;14047;50.936;4.654;2023-09-07T04:46:44;15.90;99.90
26336;DHT22;14047;50.936;4.654;2023-09-07T04:49:11;15.90;99.90
26336;DHT22;14047;50.936;4.654;2023-09-07T04:51:37;15.90;99.90
26336;DHT22;14047;50.936;4.654;2023-09-07T04:54:03;15.90;99.90
26336;DHT22;14047;50.936;4.654;2023-09-07T04:56:30;15.90;99.90
26336;DHT22;14047;50.936;4.654;2023-09-07T04:58:57;15.90;99.90
26336;DHT22;14047;50.936;4.654;2023-09-07T05:01:23;15.90;99.90
26336;DHT22;14047;50.936;4.654;2023-09-07T05:03:51;15.80;99.90
26336;DHT22;14047;50.936;4.654;2023-09-07T05:06:17;15.80;99.90
26336;DHT22;14047;50.936;4.654;2023-09-07T05:08:43;15.80;99.90
26336;DHT22;14047;50.936;4.654;2023-09-07T05:11:11;15.80;99.90
26336;DHT22;14047;50.936;4.654;2023-09-07T05:13:36;15.80;99.90
26336;DHT22;14047;50.936;4.654;2023-09-07T05:16:02;15.80;99.90
26336;DHT22;14047;50.936;4.654;2023-09-07T05:18:31;15.80;99.90
26336;DHT22;14047;50.936;4.654;2023-09-07T05:20:57;15.70;99.90
26336;DHT22;14047;50.936;4.654;2023-09-07T05:23:23;15.80;99.90
26336;DHT22;14047;50.936;4.654;2023-09-07T05:25:54;15.80;99.90
26336;DHT22;14047;50.936;4.654;2023-09-07T05:28:23;15.80;99.90
26336;DHT22;14047;50.936;4.654;2023-09-07T05:30:50;15.90;99.90
26336;DHT22;14047;50.936;4.654;2023-09-07T05:33:17;15.90;99.90
26336;DHT22;14047;50.936;4.654;2023-09-07T05:35:44;15.90;99.90
26336;DHT22;14047;50.936;4.654;2023-09-07T05:38:12;15.90;99.90
26336;DHT22;14047;50.936;4.654;2023-09-07T05:40:43;15.90;99.90
26336;DHT22;14047;50.936;4.654;2023-09-07T05:43:10;15.90;99.90
26336;DHT22;14047;50.936;4.654;2023-09-07T05:45:39;15.90;99.90
26336;DHT22;14047;50.936;4.654;2023-09-07T05:48:07;15.90;99.90
26336;DHT22;14047;50.936;4.654;2023-09-07T05:50:35;16.00;99.90
26336;DHT22;14047;50.936;4.654;2023-09-07T05:53:01;16.10;99.90
26336;DHT22;14047;50.936;4.654;2023-09-07T05:55:27;16.20;99.90
26336;DHT22;14047;50.936;4.654;2023-09-07T05:57:57;16.30;99.90
26336;DHT22;14047;50.936;4.654;2023-09-07T06:00:25;16.30;99.90
26336;DHT22;14047;50.936;4.654;2023-09-07T06:02:51;16.40;99.90
26336;DHT22;14047;50.936;4.654;2023-09-07T06:05:18;16.50;99.90
26336;DHT22;14047;50.936;4.654;2023-09-07T06:07:44;16.60;99.90
26336;DHT22;14047;50.936;4.654;2023-09-07T06:10:12;16.70;99.90
26336;DHT22;14047;50.936;4.654;2023-09-07T06:12:38;16.70;99.90
26336;DHT22;14047;50.936;4.654;2023-09-07T06:15:05;16.90;99.90
26336;DHT22;14047;50.936;4.654;2023-09-07T06:17:32;16.90;99.90
26336;DHT22;14047;50.936;4.654;2023-09-07T06:19:58;17.10;99.90
26336;DHT22;14047;50.936;4.654;2023-09-07T06:22:25;17.30;99.90
26336;DHT22;14047;50.936;4.654;2023-09-07T06:24:52;17.40;99.90
26336;DHT22;14047;50.936;4.654;2023-09-07T06:27:18;17.60;99.90
26336;DHT22;14047;50.936;4.654;2023-09-07T06:29:44;17.70;99.90
26336;DHT22;14047;50.936;4.654;2023-09-07T06:32:10;17.90;99.90
26336;DHT22;14047;50.936;4.654;2023-09-07T06:34:36;18.00;99.90
26336;DHT22;14047;50.936;4.654;2023-09-07T06:37:03;18.10;99.90
26336;DHT22;14047;50.936;4.654;2023-09-07T06:39:29;18.20;99.90
26336;DHT22;14047;50.936;4.654;2023-09-07T06:41:55;18.30;99.90
26336;DHT22;14047;50.936;4.654;2023-09-07T06:44:25;18.50;99.90
26336;DHT22;14047;50.936;4.654;2023-09-07T06:46:52;18.60;99.90
26336;DHT22;14047;50.936;4.654;2023-09-07T06:49:18;18.70;99.90
26336;DHT22;14047;50.936;4.654;2023-09-07T06:51:45;18.80;99.90
26336;DHT22;14047;50.936;4.654;2023-09-07T06:54:11;19.00;99.90
26336;DHT22;14047;50.936;4.654;2023-09-07T06:56:37;19.10;99.90
26336;DHT22;14047;50.936;4.654;2023-09-07T06:59:03;19.20;99.90
26336;DHT22;14047;50.936;4.654;2023-09-07T07:01:30;19.30;99.90
26336;DHT22;14047;50.936;4.654;2023-09-07T07:03:56;19.40;99.90
26336;DHT22;14047;50.936;4.654;2023-09-07T07:06:23;19.50;99.90
26336;DHT22;14047;50.936;4.654;2023-09-07T07:08:51;19.60;99.90
26336;DHT22;14047;50.936;4.654;2023-09-07T07:11:17;19.80;99.90
26336;DHT22;14047;50.936;4.654;2023-09-07T07:13:43;19.80;99.90
26336;DHT22;14047;50.936;4.654;2023-09-07T07:16:10;20.00;99.90
26336;DHT22;14047;50.936;4.654;2023-09-07T07:18:37;20.10;99.90
26336;DHT22;14047;50.936;4.654;2023-09-07T07:21:03;20.20;99.90
26336;DHT22;14047;50.936;4.654;2023-09-07T07:23:29;20.30;99.90
26336;DHT22;14047;50.936;4.654;2023-09-07T07:25:55;20.40;99.90
26336;DHT22;14047;50.936;4.654;2023-09-07T07:28:23;20.60;99.90
26336;DHT22;14047;50.936;4.654;2023-09-07T07:30:49;20.70;99.90
26336;DHT22;14047;50.936;4.654;2023-09-07T07:33:18;20.80;99.90
26336;DHT22;14047;50.936;4.654;2023-09-07T07:35:44;21.00;99.90
26336;DHT22;14047;50.936;4.654;2023-09-07T07:38:11;21.10;99.90
26336;DHT22;14047;50.936;4.654;2023-09-07T07:40:40;21.20;99.90
26336;DHT22;14047;50.936;4.654;2023-09-07T07:43:08;21.40;99.90
26336;DHT22;14047;50.936;4.654;2023-09-07T07:45:36;21.30;99.90
26336;DHT22;14047;50.936;4.654;2023-09-07T07:48:03;21.40;99.90
26336;DHT22;14047;50.936;4.654;2023-09-07T07:50:31;21.50;99.90
26336;DHT22;14047;50.936;4.654;2023-09-07T07:52:58;21.60;99.90
26336;DHT22;14047;50.936;4.654;2023-09-07T07:55:24;21.70;99.90
26336;DHT22;14047;50.936;4.654;2023-09-07T07:57:49;21.70;99.90
26336;DHT22;14047;50.936;4.654;2023-09-07T08:00:16;21.90;99.90
26336;DHT22;14047;50.936;4.654;2023-09-07T08:02:49;22.00;99.90
26336;DHT22;14047;50.936;4.654;2023-09-07T08:05:16;22.20;99.90
26336;DHT22;14047;50.936;4.654;2023-09-07T08:07:42;22.10;99.90
26336;DHT22;14047;50.936;4.654;2023-09-07T08:10:08;22.30;99.90
26336;DHT22;14047;50.936;4.654;2023-09-07T08:12:35;22.40;99.90
26336;DHT22;14047;50.936;4.654;2023-09-07T08:15:01;22.50;99.90
26336;DHT22;14047;50.936;4.654;2023-09-07T08:17:27;22.60;99.90
26336;DHT22;14047;50.936;4.654;2023-09-07T08:19:53;22.70;99.90
26336;DHT22;14047;50.936;4.654;2023-09-07T08:22:23;22.80;99.90
26336;DHT22;14047;50.936;4.654;2023-09-07T08:24:49;23.00;99.90
26336;DHT22;14047;50.936;4.654;2023-09-07T08:27:17;23.10;99.90
26336;DHT22;14047;50.936;4.654;2023-09-07T08:29:48;23.20;99.90
26336;DHT22;14047;50.936;4.654;2023-09-07T08:32:17;23.20;99.90
26336;DHT22;14047;50.936;4.654;2023-09-07T08:34:43;23.30;99.90
26336;DHT22;14047;50.936;4.654;2023-09-07T08:37:09;23.40;99.90
26336;DHT22;14047;50.936;4.654;2023-09-07T08:39:35;23.50;99.90
26336;DHT22;14047;50.936;4.654;2023-09-07T08:42:07;23.80;99.90
26336;DHT22;14047;50.936;4.654;2023-09-07T08:44:34;23.90;99.90
26336;DHT22;14047;50.936;4.654;2023-09-07T08:47:02;23.90;99.90
26336;DHT22;14047;50.936;4.654;2023-09-07T08:49:30;24.00;99.90
26336;DHT22;14047;50.936;4.654;2023-09-07T08:51:59;24.10;99.90
26336;DHT22;14047;50.936;4.654;2023-09-07T08:54:26;24.10;99.90
26336;DHT22;14047;50.936;4.654;2023-09-07T08:56:53;24.20;99.90
26336;DHT22;14047;50.936;4.654;2023-09-07T08:59:19;24.40;99.90
26336;DHT22;14047;50.936;4.654;2023-09-07T09:01:45;24.40;99.90
26336;DHT22;14047;50.936;4.654;2023-09-07T09:04:10;24.50;99.90
26336;DHT22;14047;50.936;4.654;2023-09-07T09:06:36;24.60;99.90
26336;DHT22;14047;50.936;4.654;2023-09-07T09:09:03;24.70;99.90
26336;DHT22;14047;50.936;4.654;2023-09-07T09:11:31;24.80;99.90
26336;DHT22;14047;50.936;4.654;2023-09-07T09:13:57;24.90;99.90
26336;DHT22;14047;50.936;4.654;2023-09-07T09:16:22;25.00;99.90
26336;DHT22;14047;50.936;4.654;2023-09-07T09:18:50;25.10;99.90
26336;DHT22;14047;50.936;4.654;2023-09-07T09:21:23;25.30;99.90
26336;DHT22;14047;50.936;4.654;2023-09-07T09:23:51;25.40;99.90
26336;DHT22;14047;50.936;4.654;2023-09-07T09:26:18;25.40;99.90
26336;DHT22;14047;50.936;4.654;2023-09-07T09:28:46;25.50;99.90
26336;DHT22;14047;50.936;4.654;2023-09-07T09:31:12;25.60;99.90
26336;DHT22;14047;50.936;4.654;2023-09-07T09:33:42;25.70;99.90
26336;DHT22;14047;50.936;4.654;2023-09-07T09:36:13;25.80;99.90
26336;DHT22;14047;50.936;4.654;2023-09-07T09:38:39;25.80;99.90
26336;DHT22;14047;50.936;4.654;2023-09-07T09:41:09;25.80;99.90
26336;DHT22;14047;50.936;4.654;2023-09-07T09:43:35;25.90;99.90
26336;DHT22;14047;50.936;4.654;2023-09-07T09:46:04;25.90;99.90
26336;DHT22;14047;50.936;4.654;2023-09-07T09:48:32;26.00;99.90
26336;DHT22;14047;50.936;4.654;2023-09-07T09:51:21;26.20;99.90
26336;DHT22;14047;50.936;4.654;2023-09-07T09:54:37;26.40;99.90
26336;DHT22;14047;50.936;4.654;2023-09-07T09:57:30;26.50;99.90
26336;DHT22;14047;50.936;4.654;2023-09-07T09:59:59;26.30;99.90
26336;DHT22;14047;50.936;4.654;2023-09-07T10:02:40;26.40;99.90
26336;DHT22;14047;50.936;4.654;2023-09-07T10:05:08;26.40;99.90
26336;DHT22;14047;50.936;4.654;2023-09-07T10:07:43;26.40;99.90
26336;DHT22;14047;50.936;4.654;2023-09-07T10:10:12;26.50;99.90
26336;DHT22;14047;50.936;4.654;2023-09-07T10:12:53;26.70;99.90
26336;DHT22;14047;50.936;4.654;2023-09-07T10:15:29;26.90;99.90
26336;DHT22;14047;50.936;4.654;2023-09-07T10:18:32;27.00;99.90
26336;DHT22;14047;50.936;4.654;2023-09-07T10:20:59;27.10;99.90
26336;DHT22;14047;50.936;4.654;2023-09-07T10:23:37;27.20;99.90
26336;DHT22;14047;50.936;4.654;2023-09-07T10:26:15;27.40;99.90
26336;DHT22;14047;50.936;4.654;2023-09-07T10:28:43;27.50;99.90
26336;DHT22;14047;50.936;4.654;2023-09-07T10:31:15;27.60;99.90
26336;DHT22;14047;50.936;4.654;2023-09-07T10:33:42;27.80;99.90
26336;DHT22;14047;50.936;4.654;2023-09-07T10:36:27;27.90;99.90
26336;DHT22;14047;50.936;4.654;2023-09-07T10:38:55;27.70;99.90
26336;DHT22;14047;50.936;4.654;2023-09-07T10:41:25;27.80;99.90
26336;DHT22;14047;50.936;4.654;2023-09-07T10:43:56;28.00;99.90
26336;DHT22;14047;50.936;4.654;2023-09-07T10:46:24;28.20;99.90
26336;DHT22;14047;50.936;4.654;2023-09-07T10:48:52;28.30;99.90
26336;DHT22;14047;50.936;4.654;2023-09-07T10:51:19;28.50;99.90
26336;DHT22;14047;50.936;4.654;2023-09-07T10:53:46;28.60;99.90
26336;DHT22;14047;50.936;4.654;2023-09-07T10:56:13;28.70;99.90
26336;DHT22;14047;50.936;4.654;2023-09-07T10:58:40;28.70;99.90
26336;DHT22;14047;50.936;4.654;2023-09-07T11:01:09;28.80;99.90
26336;DHT22;14047;50.936;4.654;2023-09-07T11:03:37;28.90;99.90
26336;DHT22;14047;50.936;4.654;2023-09-07T11:06:16;28.70;99.90
26336;DHT22;14047;50.936;4.654;2023-09-07T11:08:48;28.50;99.90
26336;DHT22;14047;50.936;4.654;2023-09-07T11:11:28;28.40;99.90
26336;DHT22;14047;50.936;4.654;2023-09-07T11:13:57;28.60;99.90
26336;DHT22;14047;50.936;4.654;2023-09-07T11:16:55;28.70;99.90
26336;DHT22;14047;50.936;4.654;2023-09-07T11:25:09;28.80;99.90
26336;DHT22;14047;50.936;4.654;2023-09-07T11:29:17;28.80;99.90
26336;DHT22;14047;50.936;4.654;2023-09-07T11:33:40;28.90;99.90
26336;DHT22;14047;50.936;4.654;2023-09-07T11:37:24;29.00;99.90
26336;DHT22;14047;50.936;4.654;2023-09-07T11:45:02;29.60;99.90
26336;DHT22;14047;50.936;4.654;2023-09-07T11:47:37;29.90;99.90
26336;DHT22;14047;50.936;4.654;2023-09-07T11:50:23;29.80;99.90
26336;DHT22;14047;50.936;4.654;2023-09-07T11:58:14;30.00;99.90
26336;DHT22;14047;50.936;4.654;2023-09-07T12:00:55;30.10;99.90
26336;DHT22;14047;50.936;4.654;2023-09-07T12:03:22;30.20;99.90
26336;DHT22;14047;50.936;4.654;2023-09-07T12:05:48;30.20;99.90
26336;DHT22;14047;50.936;4.654;2023-09-07T12:08:15;30.20;99.90
26336;DHT22;14047;50.936;4.654;2023-09-07T12:10:41;30.30;99.90
26336;DHT22;14047;50.936;4.654;2023-09-07T12:13:08;30.40;99.90
26336;DHT22;14047;50.936;4.654;2023-09-07T12:15:35;30.50;99.90
26336;DHT22;14047;50.936;4.654;2023-09-07T12:18:02;30.70;99.90
26336;DHT22;14047;50.936;4.654;2023-09-07T12:20:28;30.80;99.90
26336;DHT22;14047;50.936;4.654;2023-09-07T12:22:55;30.50;99.90
26336;DHT22;14047;50.936;4.654;2023-09-07T12:25:22;30.40;99.90
26336;DHT22;14047;50.936;4.654;2023-09-07T12:27:49;30.50;99.90
26336;DHT22;14047;50.936;4.654;2023-09-07T12:30:18;30.50;99.90
26336;DHT22;14047;50.936;4.654;2023-09-07T12:32:50;30.40;99.90
26336;DHT22;14047;50.936;4.654;2023-09-07T12:35:20;30.00;99.90
26336;DHT22;14047;50.936;4.654;2023-09-07T12:37:48;30.20;99.90
26336;DHT22;14047;50.936;4.654;2023-09-07T12:40:19;30.30;99.90
26336;DHT22;14047;50.936;4.654;2023-09-07T12:42:53;30.20;99.90
26336;DHT22;14047;50.936;4.654;2023-09-07T12:45:21;30.30;99.90
26336;DHT22;14047;50.936;4.654;2023-09-07T12:47:49;30.50;99.90
26336;DHT22;14047;50.936;4.654;2023-09-07T12:50:17;30.60;99.90
26336;DHT22;14047;50.936;4.654;2023-09-07T12:52:44;30.50;99.90
26336;DHT22;14047;50.936;4.654;2023-09-07T12:55:14;30.70;99.90
26336;DHT22;14047;50.936;4.654;2023-09-07T12:57:53;30.70;99.90
26336;DHT22;14047;50.936;4.654;2023-09-07T13:18:12;30.90;99.90
26336;DHT22;14047;50.936;4.654;2023-09-07T13:20:42;31.20;99.90
26336;DHT22;14047;50.936;4.654;2023-09-07T13:23:08;31.40;99.90
26336;DHT22;14047;50.936;4.654;2023-09-07T13:25:34;31.80;99.90
26336;DHT22;14047;50.936;4.654;2023-09-07T13:28:00;31.80;99.90
26336;DHT22;14047;50.936;4.654;2023-09-07T13:30:27;32.00;99.90
26336;DHT22;14047;50.936;4.654;2023-09-07T13:32:54;32.10;99.90
26336;DHT22;14047;50.936;4.654;2023-09-07T13:35:21;32.20;99.90
26336;DHT22;14047;50.936;4.654;2023-09-07T13:37:49;32.20;99.90
26336;DHT22;14047;50.936;4.654;2023-09-07T13:40:56;31.70;99.90
26336;DHT22;14047;50.936;4.654;2023-09-07T13:43:52;31.80;99.90
26336;DHT22;14047;50.936;4.654;2023-09-07T13:46:30;32.00;99.90
26336;DHT22;14047;50.936;4.654;2023-09-07T13:49:00;32.10;99.90
26336;DHT22;14047;50.936;4.654;2023-09-07T13:51:29;32.00;99.90
26336;DHT22;14047;50.936;4.654;2023-09-07T13:54:02;32.10;99.90
26336;DHT22;14047;50.936;4.654;2023-09-07T13:56:29;32.30;99.90
26336;DHT22;14047;50.936;4.654;2023-09-07T13:58:57;32.50;99.90
26336;DHT22;14047;50.936;4.654;2023-09-07T14:01:25;32.50;99.90
26336;DHT22;14047;50.936;4.654;2023-09-07T14:03:53;32.10;99.90
26336;DHT22;14047;50.936;4.654;2023-09-07T14:06:26;31.80;99.90
26336;DHT22;14047;50.936;4.654;2023-09-07T14:09:01;31.30;99.90
26336;DHT22;14047;50.936;4.654;2023-09-07T14:11:28;31.20;99.90
26336;DHT22;14047;50.936;4.654;2023-09-07T14:13:55;31.50;99.90
26336;DHT22;14047;50.936;4.654;2023-09-07T14:16:24;31.40;99.90
26336;DHT22;14047;50.936;4.654;2023-09-07T14:18:52;31.50;99.90
26336;DHT22;14047;50.936;4.654;2023-09-07T14:21:19;31.70;99.90
26336;DHT22;14047;50.936;4.654;2023-09-07T14:23:48;32.00;99.90
26336;DHT22;14047;50.936;4.654;2023-09-07T14:26:17;32.00;99.90
26336;DHT22;14047;50.936;4.654;2023-09-07T14:28:46;32.30;99.90
26336;DHT22;14047;50.936;4.654;2023-09-07T14:31:13;32.10;99.90
26336;DHT22;14047;50.936;4.654;2023-09-07T14:33:41;32.40;99.90
26336;DHT22;14047;50.936;4.654;2023-09-07T14:36:09;32.70;99.90
26336;DHT22;14047;50.936;4.654;2023-09-07T14:38:36;32.90;99.90
26336;DHT22;14047;50.936;4.654;2023-09-07T14:41:18;33.20;99.90
26336;DHT22;14047;50.936;4.654;2023-09-07T14:44:10;33.40;99.90
26336;DHT22;14047;50.936;4.654;2023-09-07T14:46:48;33.70;99.90
26336;DHT22;14047;50.936;4.654;2023-09-07T14:49:49;33.80;99.90
26336;DHT22;14047;50.936;4.654;2023-09-07T14:52:42;33.90;99.90
26336;DHT22;14047;50.936;4.654;2023-09-07T14:56:07;34.00;99.90
26336;DHT22;14047;50.936;4.654;2023-09-07T14:59:37;34.00;99.90
26336;DHT22;14047;50.936;4.654;2023-09-07T15:02:40;34.80;99.90
26336;DHT22;14047;50.936;4.654;2023-09-07T15:09:19;36.90;99.90
26336;DHT22;14047;50.936;4.654;2023-09-07T15:12:20;38.00;99.90
26336;DHT22;14047;50.936;4.654;2023-09-07T15:14:47;38.90;99.90
26336;DHT22;14047;50.936;4.654;2023-09-07T15:17:16;39.60;99.90
26336;DHT22;14047;50.936;4.654;2023-09-07T15:19:46;39.90;98.10
26336;DHT22;14047;50.936;4.654;2023-09-07T15:22:15;39.80;97.30
26336;DHT22;14047;50.936;4.654;2023-09-07T15:25:01;40.20;95.70
26336;DHT22;14047;50.936;4.654;2023-09-07T15:28:27;40.60;94.80
26336;DHT22;14047;50.936;4.654;2023-09-07T15:31:39;41.30;92.50
26336;DHT22;14047;50.936;4.654;2023-09-07T15:38:18;41.70;91.10
26336;DHT22;14047;50.936;4.654;2023-09-07T15:40:49;41.40;90.50
26336;DHT22;14047;50.936;4.654;2023-09-07T15:43:15;41.20;90.20
26336;DHT22;14047;50.936;4.654;2023-09-07T15:45:45;41.60;88.70
26336;DHT22;14047;50.936;4.654;2023-09-07T15:48:12;41.80;86.80
26336;DHT22;14047;50.936;4.654;2023-09-07T15:50:42;41.80;85.30
26336;DHT22;14047;50.936;4.654;2023-09-07T15:53:09;41.80;86.00
26336;DHT22;14047;50.936;4.654;2023-09-07T15:55:36;41.70;87.20
26336;DHT22;14047;50.936;4.654;2023-09-07T15:58:06;41.80;86.10
26336;DHT22;14047;50.936;4.654;2023-09-07T16:00:40;42.00;86.30
26336;DHT22;14047;50.936;4.654;2023-09-07T16:07:45;42.20;84.70
26336;DHT22;14047;50.936;4.654;2023-09-07T16:10:16;42.40;82.10
26336;DHT22;14047;50.936;4.654;2023-09-07T16:12:54;42.40;82.00
26336;DHT22;14047;50.936;4.654;2023-09-07T16:15:56;42.20;82.60
26336;DHT22;14047;50.936;4.654;2023-09-07T16:18:50;42.00;82.80
26336;DHT22;14047;50.936;4.654;2023-09-07T16:21:24;42.10;83.70
26336;DHT22;14047;50.936;4.654;2023-09-07T16:23:52;42.20;82.90
26336;DHT22;14047;50.936;4.654;2023-09-07T16:26:23;42.30;83.00
26336;DHT22;14047;50.936;4.654;2023-09-07T16:28:53;42.40;82.40
26336;DHT22;14047;50.936;4.654;2023-09-07T16:31:22;42.40;81.60
26336;DHT22;14047;50.936;4.654;2023-09-07T16:38:07;42.50;82.40
26336;DHT22;14047;50.936;4.654;2023-09-07T16:40:38;41.50;85.60